Tesouro, Brazil
Current Conditions -  °F | °C
As of 1:00 PM on Monday 24 Nov 2014 (Local Time) from SBCY Reporting Station
Broken Clouds Broken Clouds  
Wind Chill: 86°   Ceiling: 10000
Heat Index: 95°   Visibility: 6mi
Dew Point: 75°   Wind: 12mph
Humidity: 70%   Direction: 350°N
Pressure: 29.88"   Gusts: NA
Location:  16.08°S, 53.55°W
Report Text: SBCY 241600Z 35010KT 9999 SCT020 BKN100 30/24 Q1012
Loading
Personal Weather Stations






























Interactive Weather Map New forecast layout! Learn more

10-Day Weather Forecast

Advertisements
Track Severe Weather on mobile